createdAt,value
2022-09-11T00:01:16.096Z,21.88
2022-09-11T00:03:44.436Z,20.10
2022-09-11T00:06:13.993Z,17.23
2022-09-11T00:08:41.852Z,19.25
2022-09-11T00:11:13.775Z,23.20
2022-09-11T00:13:40.625Z,18.80
2022-09-11T00:16:08.773Z,17.70
2022-09-11T00:18:38.220Z,21.63
2022-09-11T00:21:08.042Z,25.67
2022-09-11T00:23:34.744Z,22.80
2022-09-11T00:26:03.405Z,21.33
2022-09-11T00:28:30.578Z,21.42
2022-09-11T00:31:06.167Z,20.73
2022-09-11T00:33:33.609Z,28.38
2022-09-11T00:36:04.023Z,32.90
2022-09-11T00:38:33.919Z,26.30
2022-09-11T00:41:01.739Z,22.63
2022-09-11T00:43:30.012Z,29.48
2022-09-11T00:46:03.665Z,28.10
2022-09-11T00:48:35.463Z,30.25
2022-09-11T00:51:04.086Z,28.10
2022-09-11T00:53:34.349Z,33.28
2022-09-11T00:56:03.171Z,30.30
2022-09-11T00:58:34.390Z,32.38
2022-09-11T01:01:01.888Z,35.08
2022-09-11T01:03:29.112Z,32.85
2022-09-11T01:05:56.386Z,35.55
2022-09-11T01:08:23.177Z,40.58
2022-09-11T01:11:13.485Z,37.55
2022-09-11T01:13:55.566Z,34.17
2022-09-11T01:16:28.331Z,39.20
2022-09-11T01:19:46.568Z,36.88
2022-09-11T01:25:03.394Z,40.38
2022-09-11T01:27:50.325Z,39.55
2022-09-11T01:30:22.369Z,37.53
2022-09-11T01:33:01.104Z,42.65
2022-09-11T01:35:37.279Z,40.00
2022-09-11T01:38:28.627Z,37.65
2022-09-11T01:40:59.331Z,38.83
2022-09-11T01:43:29.560Z,31.33
2022-09-11T01:45:58.698Z,29.33
2022-09-11T01:48:29.977Z,30.42
2022-09-11T01:50:57.952Z,29.25
2022-09-11T01:53:30.377Z,31.98
2022-09-11T01:56:02.469Z,31.35
2022-09-11T01:58:30.971Z,26.05
2022-09-11T02:01:19.381Z,24.40
2022-09-11T02:03:53.596Z,29.42
2022-09-11T02:06:30.501Z,24.88
2022-09-11T02:09:01.033Z,27.52
2022-09-11T02:11:30.987Z,26.98
2022-09-11T02:14:07.056Z,27.73
2022-09-11T02:16:54.130Z,24.50
2022-09-11T02:19:25.138Z,28.42
2022-09-11T02:21:51.972Z,25.27
2022-09-11T02:24:20.136Z,24.45
2022-09-11T02:26:58.673Z,26.73
2022-09-11T02:29:26.128Z,29.92
2022-09-11T02:31:53.117Z,29.50
2022-09-11T02:34:27.676Z,29.52
2022-09-11T02:37:13.033Z,28.35
2022-09-11T02:39:42.654Z,30.00
2022-09-11T02:42:27.760Z,29.85
2022-09-11T02:45:09.716Z,32.00
2022-09-11T02:47:44.777Z,27.75
2022-09-11T02:50:36.867Z,27.10
2022-09-11T02:53:03.501Z,27.83
2022-09-11T02:55:49.061Z,25.52
2022-09-11T02:58:22.117Z,25.15
2022-09-11T03:00:48.811Z,30.92
2022-09-11T03:03:15.634Z,24.10
2022-09-11T03:05:42.732Z,27.38
2022-09-11T03:08:09.778Z,27.15
2022-09-11T03:10:36.467Z,30.52
2022-09-11T03:13:03.124Z,25.73
2022-09-11T03:15:29.776Z,27.40
2022-09-11T03:17:57.948Z,25.58
2022-09-11T03:20:24.574Z,23.10
2022-09-11T03:22:51.289Z,28.80
2022-09-11T03:25:17.929Z,27.50
2022-09-11T03:27:44.574Z,28.55
2022-09-11T03:30:11.794Z,30.33
2022-09-11T03:32:38.438Z,25.83
2022-09-11T03:35:05.382Z,27.38
2022-09-11T03:37:32.012Z,24.15
2022-09-11T03:40:01.462Z,28.00
2022-09-11T03:42:28.154Z,25.65
2022-09-11T03:44:54.837Z,24.17
2022-09-11T03:47:22.309Z,26.58
2022-09-11T03:49:48.958Z,21.65
2022-09-11T03:52:15.585Z,23.92
2022-09-11T03:54:42.305Z,22.45
2022-09-11T03:57:09.705Z,20.13
2022-09-11T03:59:36.338Z,23.00
2022-09-11T04:02:03.033Z,31.38
2022-09-11T04:04:29.720Z,20.85
2022-09-11T04:06:56.758Z,21.45
2022-09-11T04:09:23.454Z,22.90
2022-09-11T04:11:50.373Z,23.27
2022-09-11T04:14:17.062Z,23.13
2022-09-11T04:16:43.701Z,23.27
2022-09-11T04:19:11.565Z,24.88
2022-09-11T04:21:39.350Z,20.65
2022-09-11T04:24:06.230Z,20.65
2022-09-11T04:26:33.485Z,23.65
2022-09-11T04:29:01.346Z,18.38
2022-09-11T04:31:28.611Z,24.73
2022-09-11T04:33:57.689Z,21.80
2022-09-11T04:36:27.086Z,23.08
2022-09-11T04:38:56.163Z,26.42
2022-09-11T04:43:50.037Z,26.38
2022-09-11T04:46:17.943Z,20.35
2022-09-11T04:48:49.195Z,16.83
2022-09-11T04:51:21.781Z,16.02
2022-09-11T04:53:48.955Z,17.55
2022-09-11T04:56:16.440Z,18.08
2022-09-11T04:58:43.364Z,17.00
2022-09-11T05:01:13.787Z,17.20
2022-09-11T05:03:41.154Z,15.43
2022-09-11T05:06:09.312Z,21.02
2022-09-11T05:08:36.849Z,16.42
2022-09-11T05:11:05.603Z,18.35
2022-09-11T05:16:04.550Z,19.98
2022-09-11T05:18:31.389Z,19.35
2022-09-11T05:21:02.559Z,18.33
2022-09-11T05:23:31.326Z,21.17
2022-09-11T05:28:26.483Z,20.42
2022-09-11T05:30:54.640Z,22.98
2022-09-11T05:33:23.740Z,23.10
2022-09-11T05:35:52.068Z,18.17
2022-09-11T05:38:19.590Z,19.05
2022-09-11T05:40:48.410Z,21.45
2022-09-11T05:43:16.359Z,16.00
2022-09-11T05:45:44.359Z,18.42
2022-09-11T05:48:11.097Z,14.77
2022-09-11T05:50:38.404Z,16.40
2022-09-11T05:53:05.868Z,15.23
2022-09-11T05:55:35.610Z,14.90
2022-09-11T05:58:02.685Z,18.90
2022-09-11T06:00:30.551Z,17.92
2022-09-11T06:02:59.006Z,13.60
2022-09-11T06:05:25.668Z,11.93
2022-09-11T06:07:52.284Z,12.98
2022-09-11T06:10:18.926Z,15.13
2022-09-11T06:12:45.572Z,14.93
2022-09-11T06:15:30.179Z,15.77
2022-09-11T06:17:59.901Z,17.15
2022-09-11T06:20:26.565Z,17.40
2022-09-11T06:22:54.185Z,13.05
2022-09-11T06:25:20.917Z,12.07
2022-09-11T06:27:47.531Z,18.38
2022-09-11T06:30:14.226Z,15.82
2022-09-11T06:32:41.251Z,14.50
2022-09-11T06:35:08.260Z,10.55
2022-09-11T06:37:35.872Z,17.70
2022-09-11T06:40:02.815Z,10.63
2022-09-11T06:42:29.885Z,12.30
2022-09-11T06:44:56.746Z,17.17
2022-09-11T06:47:23.385Z,11.82
2022-09-11T06:49:50.143Z,16.95
2022-09-11T06:52:16.810Z,12.80
2022-09-11T06:54:44.601Z,17.48
2022-09-11T06:57:11.268Z,13.35
2022-09-11T06:59:38.192Z,15.52
2022-09-11T07:02:05.241Z,11.13
2022-09-11T07:04:31.932Z,16.52
2022-09-11T07:06:58.566Z,13.43
2022-09-11T07:09:25.217Z,18.25
2022-09-11T07:11:51.840Z,14.57
2022-09-11T07:14:21.448Z,16.02
2022-09-11T07:16:50.150Z,12.35
2022-09-11T07:21:45.427Z,14.52
2022-09-11T07:24:12.127Z,10.95
2022-09-11T07:26:39.129Z,12.48
2022-09-11T07:29:05.766Z,12.65
2022-09-11T07:31:33.527Z,10.02
2022-09-11T07:34:00.490Z,10.98
2022-09-11T07:36:30.195Z,10.73
2022-09-11T07:38:58.107Z,10.85
2022-09-11T07:41:26.303Z,19.55
2022-09-11T07:43:55.043Z,13.63
2022-09-11T07:46:22.052Z,9.95
2022-09-11T07:48:49.034Z,16.23
2022-09-11T07:51:17.188Z,14.45
2022-09-11T07:53:46.318Z,10.07
2022-09-11T07:56:15.996Z,10.10
2022-09-11T07:58:43.462Z,12.68
2022-09-11T08:01:13.925Z,16.85
2022-09-11T08:03:40.970Z,9.27
2022-09-11T08:06:11.147Z,10.32
2022-09-11T08:08:38.267Z,10.88
2022-09-11T08:11:13.827Z,11.60
2022-09-11T08:13:40.492Z,12.30
2022-09-11T08:16:07.765Z,11.57
2022-09-11T08:18:37.985Z,9.90
2022-09-11T08:21:12.947Z,15.05
2022-09-11T08:23:42.010Z,13.55
2022-09-11T08:26:14.164Z,15.05
2022-09-11T08:28:45.075Z,13.68
2022-09-11T08:31:13.116Z,11.30
2022-09-11T08:33:39.954Z,12.25
2022-09-11T08:36:09.841Z,10.63
2022-09-11T08:38:37.577Z,16.25
2022-09-11T08:41:19.476Z,12.80
2022-09-11T08:43:51.683Z,10.93
2022-09-11T08:46:20.170Z,13.73
2022-09-11T08:49:07.005Z,16.33
2022-09-11T08:51:34.235Z,10.85
2022-09-11T08:54:02.472Z,13.52
2022-09-11T08:56:30.841Z,11.65
2022-09-11T08:59:24.469Z,11.02
2022-09-11T09:02:07.947Z,11.55
2022-09-11T09:04:56.918Z,8.02
2022-09-11T09:07:32.204Z,14.02
2022-09-11T09:10:17.909Z,12.70
2022-09-11T09:12:57.151Z,11.70
2022-09-11T09:15:47.640Z,22.17
2022-09-11T09:18:46.499Z,12.02
2022-09-11T09:21:35.479Z,9.90
2022-09-11T09:24:04.801Z,7.20
2022-09-11T09:26:38.477Z,11.10
2022-09-11T09:29:10.192Z,14.45
2022-09-11T09:31:39.105Z,8.82
2022-09-11T09:34:18.545Z,9.32
2022-09-11T09:36:57.041Z,10.00
2022-09-11T09:39:24.421Z,10.50
2022-09-11T09:42:16.245Z,11.60
2022-09-11T09:45:20.340Z,7.85
2022-09-11T09:47:48.620Z,9.48
2022-09-11T09:50:27.787Z,13.02
2022-09-11T09:53:20.261Z,7.97
2022-09-11T09:55:47.573Z,10.10
2022-09-11T09:58:15.104Z,8.90
2022-09-11T10:00:41.922Z,13.80
2022-09-11T10:03:26.856Z,7.18
2022-09-11T10:05:54.969Z,12.13
2022-09-11T10:08:31.770Z,8.82
2022-09-11T10:11:01.048Z,12.63
2022-09-11T10:13:36.790Z,9.15
2022-09-11T10:16:05.320Z,5.55
2022-09-11T10:21:11.888Z,7.00
2022-09-11T10:23:53.162Z,7.90
2022-09-11T10:26:28.304Z,7.43
2022-09-11T10:28:59.784Z,8.93
2022-09-11T10:31:26.507Z,8.25
2022-09-11T10:33:58.915Z,12.73
2022-09-11T10:36:29.577Z,11.90
2022-09-11T10:38:57.804Z,10.13
2022-09-11T10:41:28.424Z,8.20
2022-09-11T10:44:02.387Z,13.18
2022-09-11T10:46:40.145Z,9.20
2022-09-11T10:49:06.957Z,8.27
2022-09-11T10:51:46.760Z,7.00
2022-09-11T10:54:20.461Z,10.52
2022-09-11T10:57:16.240Z,7.90
2022-09-11T10:59:48.870Z,9.25
2022-09-11T11:02:35.741Z,6.07
2022-09-11T11:05:08.658Z,8.07
2022-09-11T11:08:06.393Z,7.95
2022-09-11T11:11:06.078Z,6.40
2022-09-11T11:14:00.439Z,10.88
2022-09-11T11:16:39.700Z,7.25
2022-09-11T11:19:21.622Z,8.05
2022-09-11T11:22:13.339Z,8.15
2022-09-11T11:24:39.973Z,6.80
2022-09-11T11:27:29.770Z,13.20
2022-09-11T11:30:13.118Z,6.72
2022-09-11T11:33:09.430Z,10.65
2022-09-11T11:35:49.406Z,8.13
2022-09-11T11:38:16.022Z,7.65
2022-09-11T11:40:53.573Z,6.65
2022-09-11T11:43:28.745Z,6.90
2022-09-11T11:46:08.619Z,8.25
2022-09-11T11:48:35.288Z,6.40
2022-09-11T11:51:07.577Z,8.05
2022-09-11T11:53:59.173Z,7.07
2022-09-11T11:56:40.977Z,9.60
2022-09-11T11:59:35.474Z,9.23
2022-09-11T12:02:15.920Z,6.05
2022-09-11T12:05:12.380Z,10.05
2022-09-11T12:07:39.845Z,11.38
2022-09-11T12:10:08.617Z,6.55
2022-09-11T12:12:43.983Z,7.43
2022-09-11T12:15:21.932Z,10.43
2022-09-11T12:18:06.989Z,6.75
2022-09-11T12:20:44.417Z,6.80
2022-09-11T12:23:34.201Z,6.80
2022-09-11T12:26:22.333Z,5.43
2022-09-11T12:28:50.348Z,5.45
2022-09-11T12:31:18.174Z,11.75
2022-09-11T12:33:45.954Z,7.38
2022-09-11T12:36:16.971Z,7.68
2022-09-11T12:38:47.575Z,8.63
2022-09-11T12:41:22.971Z,7.55
2022-09-11T12:43:50.383Z,5.78
2022-09-11T12:46:22.766Z,9.05
2022-09-11T12:49:17.884Z,5.25
2022-09-11T12:51:43.212Z,5.90
2022-09-11T12:54:16.186Z,15.45
2022-09-11T12:56:47.875Z,10.95
2022-09-11T12:59:24.244Z,8.95
2022-09-11T13:01:52.111Z,7.13
2022-09-11T13:04:22.349Z,7.22
2022-09-11T13:06:51.688Z,8.25
2022-09-11T13:09:25.677Z,8.52
2022-09-11T13:11:57.145Z,7.68
2022-09-11T13:14:29.602Z,5.93
2022-09-11T13:16:57.726Z,7.68
2022-09-11T13:19:39.384Z,7.47
2022-09-11T13:22:38.713Z,7.10
2022-09-11T13:25:12.589Z,7.00
2022-09-11T13:27:42.166Z,8.60
2022-09-11T13:30:09.334Z,14.40
2022-09-11T13:32:36.083Z,13.73
2022-09-11T13:35:11.128Z,9.68
2022-09-11T13:37:57.162Z,8.05
2022-09-11T13:40:35.785Z,11.48
2022-09-11T13:43:02.775Z,7.70
2022-09-11T13:45:29.616Z,9.82
2022-09-11T13:47:58.379Z,10.40
2022-09-11T13:52:53.239Z,5.90
2022-09-11T13:55:21.164Z,8.00
2022-09-11T13:57:59.203Z,5.70
2022-09-11T14:00:45.402Z,8.25
2022-09-11T14:03:16.892Z,7.40
2022-09-11T14:05:51.869Z,8.85
2022-09-11T14:08:24.626Z,9.98
2022-09-11T14:10:54.088Z,11.75
2022-09-11T14:13:23.214Z,6.03
2022-09-11T14:15:57.314Z,8.07
2022-09-11T14:18:56.193Z,7.07
2022-09-11T14:21:37.461Z,8.13
2022-09-11T14:24:07.314Z,10.05
2022-09-11T14:26:36.539Z,8.30
2022-09-11T14:29:07.035Z,8.50
2022-09-11T14:31:41.623Z,9.52
2022-09-11T14:34:17.942Z,8.85
2022-09-11T14:37:13.847Z,16.23
2022-09-11T14:39:42.200Z,8.02
2022-09-11T14:42:12.794Z,7.05
2022-09-11T14:44:40.942Z,6.57
2022-09-11T14:47:13.812Z,7.13
2022-09-11T14:49:40.453Z,8.43
2022-09-11T14:52:07.644Z,10.07
2022-09-11T14:54:34.337Z,10.70
2022-09-11T14:57:01.095Z,6.88
2022-09-11T14:59:29.263Z,13.23
2022-09-11T15:01:58.702Z,7.28
2022-09-11T15:04:25.545Z,8.65
2022-09-11T15:06:55.499Z,9.27
2022-09-11T15:09:23.282Z,14.63
2022-09-11T15:11:52.360Z,6.90
2022-09-11T15:14:38.511Z,10.32
2022-09-11T15:17:11.134Z,9.27
2022-09-11T15:19:38.264Z,7.30
2022-09-11T15:22:06.903Z,5.88
2022-09-11T15:27:01.248Z,8.63
2022-09-11T15:29:31.609Z,8.98
2022-09-11T15:31:59.633Z,10.95
2022-09-11T15:34:27.288Z,7.55
2022-09-11T15:36:53.997Z,9.45
2022-09-11T15:39:21.128Z,8.25
2022-09-11T15:41:47.912Z,9.85
2022-09-11T15:44:22.193Z,7.10
2022-09-11T15:46:50.222Z,7.45
2022-09-11T15:49:17.981Z,13.57
2022-09-11T15:51:44.605Z,13.60
2022-09-11T15:54:12.658Z,8.65
2022-09-11T15:56:39.491Z,10.48
2022-09-11T15:59:25.053Z,22.40
2022-09-11T16:01:51.915Z,14.90
2022-09-11T16:04:21.266Z,10.50
2022-09-11T16:06:48.893Z,13.48
2022-09-11T16:09:18.312Z,9.57
2022-09-11T16:11:45.810Z,11.38
2022-09-11T16:14:22.054Z,13.00
2022-09-11T16:16:48.692Z,18.60
2022-09-11T16:19:20.490Z,17.35
2022-09-11T16:21:47.427Z,12.55
2022-09-11T16:24:15.876Z,11.48
2022-09-11T16:26:44.164Z,11.10
2022-09-11T16:29:12.539Z,8.43
2022-09-11T16:31:40.181Z,9.63
2022-09-11T16:34:07.505Z,10.05
2022-09-11T16:36:41.860Z,12.43
2022-09-11T16:39:15.200Z,9.27
2022-09-11T16:41:42.367Z,9.40
2022-09-11T16:44:21.835Z,12.57
2022-09-11T16:46:48.971Z,18.90
2022-09-11T16:49:17.709Z,11.95
2022-09-11T16:54:11.750Z,14.75
2022-09-11T16:56:41.547Z,12.35
2022-09-11T16:59:10.742Z,13.75
2022-09-11T17:01:37.536Z,28.42
2022-09-11T17:04:04.226Z,10.70
2022-09-11T17:06:32.893Z,12.38
2022-09-11T17:09:03.955Z,10.98
2022-09-11T17:11:32.268Z,8.10
2022-09-11T17:14:01.383Z,11.82
2022-09-11T17:16:29.951Z,14.77
2022-09-11T17:18:58.117Z,11.63
2022-09-11T17:21:26.100Z,9.63
2022-09-11T17:23:54.303Z,8.57
2022-09-11T17:26:21.601Z,13.65
2022-09-11T17:28:49.531Z,10.68
2022-09-11T17:31:19.160Z,19.10
2022-09-11T17:33:46.927Z,13.80
2022-09-11T17:36:17.151Z,11.35
2022-09-11T17:38:45.518Z,12.23
2022-09-11T17:41:12.791Z,8.70
2022-09-11T17:43:40.491Z,10.85
2022-09-11T17:46:15.273Z,12.45
2022-09-11T17:48:42.600Z,10.75
2022-09-11T17:51:11.951Z,16.48
2022-09-11T17:53:41.546Z,10.25
2022-09-11T17:56:10.939Z,11.15
2022-09-11T17:58:38.353Z,14.95
2022-09-11T18:01:06.173Z,22.17
2022-09-11T18:03:34.303Z,15.57
2022-09-11T18:06:02.338Z,16.25
2022-09-11T18:08:29.808Z,15.75
2022-09-11T18:11:01.568Z,17.33
2022-09-11T18:13:30.034Z,10.85
2022-09-11T18:15:56.757Z,9.43
2022-09-11T18:18:23.905Z,20.58
2022-09-11T18:20:54.017Z,17.15
2022-09-11T18:23:23.159Z,17.80
2022-09-11T18:25:50.816Z,14.13
2022-09-11T18:28:19.937Z,12.77
2022-09-11T18:30:47.517Z,15.73
2022-09-11T18:33:16.736Z,20.20
2022-09-11T18:35:44.315Z,23.40
2022-09-11T18:38:11.076Z,18.20
2022-09-11T18:40:37.822Z,19.48
2022-09-11T18:43:06.370Z,18.92
2022-09-11T18:45:35.719Z,16.42
2022-09-11T18:48:03.990Z,15.48
2022-09-11T18:50:30.624Z,12.32
2022-09-11T18:52:57.340Z,14.30
2022-09-11T18:55:24.123Z,11.68
2022-09-11T18:57:51.007Z,13.32
2022-09-11T19:00:18.216Z,8.68
2022-09-11T19:02:46.433Z,12.07
2022-09-11T19:05:15.528Z,10.98
2022-09-11T19:07:43.940Z,11.00
2022-09-11T19:10:11.804Z,22.38
2022-09-11T19:12:39.661Z,10.77
2022-09-11T19:15:07.675Z,11.80
2022-09-11T19:17:36.030Z,10.13
2022-09-11T19:20:08.349Z,13.48
2022-09-11T19:22:35.039Z,13.60
2022-09-11T19:25:01.857Z,15.35
2022-09-11T19:27:31.741Z,17.67
2022-09-11T19:29:59.981Z,16.08
2022-09-11T19:32:28.129Z,11.60
2022-09-11T19:34:54.977Z,13.98
2022-09-11T19:37:21.752Z,11.07
2022-09-11T19:39:52.045Z,11.40
2022-09-11T19:42:18.809Z,11.38
2022-09-11T19:44:45.600Z,11.13
2022-09-11T19:47:12.268Z,8.07
2022-09-11T19:49:38.912Z,10.35
2022-09-11T19:52:06.596Z,22.52
2022-09-11T19:54:35.368Z,7.70
2022-09-11T19:57:02.591Z,10.15
2022-09-11T19:59:29.356Z,10.68
2022-09-11T20:01:56.039Z,10.40
2022-09-11T20:04:22.984Z,9.52
2022-09-11T20:09:32.114Z,9.20
2022-09-11T20:12:00.646Z,9.55
2022-09-11T20:14:27.665Z,12.55
2022-09-11T20:16:54.289Z,11.32
2022-09-11T20:19:20.970Z,12.38
2022-09-11T20:21:47.586Z,10.93
2022-09-11T20:24:15.040Z,15.95
2022-09-11T20:26:42.154Z,10.73
2022-09-11T20:29:12.903Z,11.63
2022-09-11T20:31:48.803Z,12.35
2022-09-11T20:34:19.768Z,11.18
2022-09-11T20:36:47.080Z,10.80
2022-09-11T20:39:15.211Z,9.80
2022-09-11T20:41:42.247Z,12.88
2022-09-11T20:44:09.114Z,14.13
2022-09-11T20:46:35.970Z,17.23
2022-09-11T20:49:03.222Z,13.35
2022-09-11T20:51:30.164Z,10.95
2022-09-11T20:53:57.253Z,14.68
2022-09-11T20:56:24.128Z,9.40
2022-09-11T20:58:51.678Z,12.68
2022-09-11T21:01:21.478Z,13.20
2022-09-11T21:03:50.888Z,9.55
2022-09-11T21:06:20.013Z,20.95
2022-09-11T21:08:54.492Z,11.93
2022-09-11T21:11:21.674Z,14.05
2022-09-11T21:13:48.661Z,11.93
2022-09-11T21:16:16.178Z,12.45
2022-09-11T21:18:51.179Z,12.63
2022-09-11T21:21:18.146Z,10.80
2022-09-11T21:23:45.124Z,15.27
2022-09-11T21:26:14.227Z,11.07
2022-09-11T21:28:41.880Z,11.05
2022-09-11T21:31:08.702Z,11.63
2022-09-11T21:33:36.595Z,8.57
2022-09-11T21:36:03.486Z,12.10
2022-09-11T21:38:30.195Z,11.57
2022-09-11T21:40:58.133Z,11.40
2022-09-11T21:43:24.922Z,14.68
2022-09-11T21:45:51.582Z,13.70
2022-09-11T21:48:18.368Z,10.35
2022-09-11T21:50:45.036Z,10.85
2022-09-11T21:53:11.946Z,19.38
2022-09-11T21:55:43.710Z,12.60
2022-09-11T21:58:16.294Z,10.50
2022-09-11T22:00:43.530Z,21.77
2022-09-11T22:03:14.027Z,16.85
2022-09-11T22:05:43.507Z,18.50
2022-09-11T22:08:15.785Z,14.05
2022-09-11T22:10:43.789Z,17.25
2022-09-11T22:13:10.753Z,23.08
2022-09-11T22:15:45.072Z,19.67
2022-09-11T22:18:12.417Z,14.23
2022-09-11T22:20:40.757Z,13.43
2022-09-11T22:23:08.189Z,19.02
2022-09-11T22:25:36.951Z,18.08
2022-09-11T22:28:06.803Z,15.88
2022-09-11T22:30:33.633Z,16.88
2022-09-11T22:33:00.632Z,19.70
2022-09-11T22:35:27.597Z,17.80
2022-09-11T22:37:54.256Z,14.75
2022-09-11T22:40:21.012Z,15.93
2022-09-11T22:42:47.691Z,13.55
2022-09-11T22:45:14.419Z,15.40
2022-09-11T22:47:41.320Z,13.85
2022-09-11T22:50:08.399Z,13.65
2022-09-11T22:52:35.509Z,11.43
2022-09-11T22:55:02.205Z,13.73
2022-09-11T22:57:29.347Z,13.73
2022-09-11T22:59:56.254Z,16.10
2022-09-11T23:02:22.995Z,12.27
2022-09-11T23:05:08.293Z,10.85
2022-09-11T23:07:34.973Z,10.93
2022-09-11T23:10:01.923Z,19.90
2022-09-11T23:12:28.597Z,14.52
2022-09-11T23:14:55.673Z,15.13
2022-09-11T23:17:22.595Z,12.68
2022-09-11T23:19:49.263Z,14.23
2022-09-11T23:22:15.932Z,14.57
2022-09-11T23:24:42.600Z,20.35
2022-09-11T23:27:09.534Z,23.27
2022-09-11T23:29:36.171Z,21.60
2022-09-11T23:32:03.085Z,22.55
2022-09-11T23:34:29.809Z,17.73
2022-09-11T23:36:56.473Z,15.52
2022-09-11T23:39:23.102Z,14.60
2022-09-11T23:41:49.757Z,12.40
2022-09-11T23:44:16.584Z,12.85
2022-09-11T23:46:43.279Z,15.50
2022-09-11T23:49:13.173Z,15.63
2022-09-11T23:51:39.809Z,19.40
2022-09-11T23:54:07.086Z,19.98
2022-09-11T23:56:33.727Z,21.83
2022-09-11T23:59:00.525Z,16.40
